sensor_id;sensor_type;location;lat;lon;timestamp;temperature;humidity
22469;DHT22;11401;50.792;4.352;2022-08-19T00:01:50;25.20;59.00
22469;DHT22;11401;50.792;4.352;2022-08-19T00:04:25;25.20;59.10
22469;DHT22;11401;50.792;4.352;2022-08-19T00:06:53;25.10;58.80
22469;DHT22;11401;50.792;4.352;2022-08-19T00:09:22;25.10;58.80
22469;DHT22;11401;50.792;4.352;2022-08-19T00:11:50;25.00;58.70
22469;DHT22;11401;50.792;4.352;2022-08-19T00:14:17;25.00;58.80
22469;DHT22;11401;50.792;4.352;2022-08-19T00:16:46;25.00;58.90
22469;DHT22;11401;50.792;4.352;2022-08-19T00:19:15;25.00;59.00
22469;DHT22;11401;50.792;4.352;2022-08-19T00:21:43;25.00;58.90
22469;DHT22;11401;50.792;4.352;2022-08-19T00:24:12;25.00;58.90
22469;DHT22;11401;50.792;4.352;2022-08-19T00:26:41;25.00;58.90
22469;DHT22;11401;50.792;4.352;2022-08-19T00:29:10;25.00;59.00
22469;DHT22;11401;50.792;4.352;2022-08-19T00:31:38;25.00;58.90
22469;DHT22;11401;50.792;4.352;2022-08-19T00:34:05;25.00;58.90
22469;DHT22;11401;50.792;4.352;2022-08-19T00:36:32;25.00;58.90
22469;DHT22;11401;50.792;4.352;2022-08-19T00:39:00;25.00;58.90
22469;DHT22;11401;50.792;4.352;2022-08-19T00:41:28;25.00;58.90
22469;DHT22;11401;50.792;4.352;2022-08-19T00:46:34;25.10;58.80
22469;DHT22;11401;50.792;4.352;2022-08-19T00:49:19;25.00;58.90
22469;DHT22;11401;50.792;4.352;2022-08-19T00:51:48;25.10;58.70
22469;DHT22;11401;50.792;4.352;2022-08-19T00:54:17;25.00;58.90
22469;DHT22;11401;50.792;4.352;2022-08-19T00:56:54;25.00;59.00
22469;DHT22;11401;50.792;4.352;2022-08-19T00:59:21;25.00;59.00
22469;DHT22;11401;50.792;4.352;2022-08-19T01:02:09;25.10;59.10
22469;DHT22;11401;50.792;4.352;2022-08-19T01:04:35;25.10;58.90
22469;DHT22;11401;50.792;4.352;2022-08-19T01:07:03;25.00;58.90
22469;DHT22;11401;50.792;4.352;2022-08-19T01:09:30;25.10;58.90
22469;DHT22;11401;50.792;4.352;2022-08-19T01:11:58;25.10;59.00
22469;DHT22;11401;50.792;4.352;2022-08-19T01:14:25;25.00;58.90
22469;DHT22;11401;50.792;4.352;2022-08-19T01:16:54;25.10;58.80
22469;DHT22;11401;50.792;4.352;2022-08-19T01:19:31;25.10;58.80
22469;DHT22;11401;50.792;4.352;2022-08-19T01:22:34;25.10;58.80
22469;DHT22;11401;50.792;4.352;2022-08-19T01:25:03;25.10;58.40
22469;DHT22;11401;50.792;4.352;2022-08-19T01:27:42;25.00;58.80
22469;DHT22;11401;50.792;4.352;2022-08-19T01:30:19;25.00;58.80
22469;DHT22;11401;50.792;4.352;2022-08-19T01:32:46;25.00;58.70
22469;DHT22;11401;50.792;4.352;2022-08-19T01:35:14;25.00;58.80
22469;DHT22;11401;50.792;4.352;2022-08-19T01:37:45;25.00;58.80
22469;DHT22;11401;50.792;4.352;2022-08-19T01:40:12;25.00;59.00
22469;DHT22;11401;50.792;4.352;2022-08-19T01:42:39;25.00;58.90
22469;DHT22;11401;50.792;4.352;2022-08-19T01:45:07;25.00;59.00
22469;DHT22;11401;50.792;4.352;2022-08-19T01:47:36;24.90;58.90
22469;DHT22;11401;50.792;4.352;2022-08-19T01:50:06;24.90;59.00
22469;DHT22;11401;50.792;4.352;2022-08-19T01:52:36;24.90;58.90
22469;DHT22;11401;50.792;4.352;2022-08-19T01:55:05;24.90;59.00
22469;DHT22;11401;50.792;4.352;2022-08-19T01:57:33;24.90;59.00
22469;DHT22;11401;50.792;4.352;2022-08-19T02:00:04;24.90;59.00
22469;DHT22;11401;50.792;4.352;2022-08-19T02:02:37;24.90;59.10
22469;DHT22;11401;50.792;4.352;2022-08-19T02:05:05;24.90;59.00
22469;DHT22;11401;50.792;4.352;2022-08-19T02:07:38;24.90;59.10
22469;DHT22;11401;50.792;4.352;2022-08-19T02:10:13;24.90;59.00
22469;DHT22;11401;50.792;4.352;2022-08-19T02:12:42;24.90;59.00
22469;DHT22;11401;50.792;4.352;2022-08-19T02:15:10;24.80;59.00
22469;DHT22;11401;50.792;4.352;2022-08-19T02:17:37;24.80;59.00
22469;DHT22;11401;50.792;4.352;2022-08-19T02:20:05;24.80;58.90
22469;DHT22;11401;50.792;4.352;2022-08-19T02:22:33;24.80;59.00
22469;DHT22;11401;50.792;4.352;2022-08-19T02:25:00;24.80;58.90
22469;DHT22;11401;50.792;4.352;2022-08-19T02:27:27;24.80;58.90
22469;DHT22;11401;50.792;4.352;2022-08-19T02:29:54;24.70;58.80
22469;DHT22;11401;50.792;4.352;2022-08-19T02:32:21;24.70;58.80
22469;DHT22;11401;50.792;4.352;2022-08-19T02:34:48;24.70;58.70
22469;DHT22;11401;50.792;4.352;2022-08-19T02:37:15;24.70;58.70
22469;DHT22;11401;50.792;4.352;2022-08-19T02:40:01;24.70;58.60
22469;DHT22;11401;50.792;4.352;2022-08-19T02:42:29;24.70;58.70
22469;DHT22;11401;50.792;4.352;2022-08-19T02:44:56;24.70;58.60
22469;DHT22;11401;50.792;4.352;2022-08-19T02:47:22;24.70;58.60
22469;DHT22;11401;50.792;4.352;2022-08-19T02:49:49;24.60;58.60
22469;DHT22;11401;50.792;4.352;2022-08-19T02:52:16;24.60;58.50
22469;DHT22;11401;50.792;4.352;2022-08-19T02:54:44;24.60;58.60
22469;DHT22;11401;50.792;4.352;2022-08-19T02:57:10;24.60;58.50
22469;DHT22;11401;50.792;4.352;2022-08-19T02:59:37;24.60;58.50
22469;DHT22;11401;50.792;4.352;2022-08-19T03:02:04;24.60;58.40
22469;DHT22;11401;50.792;4.352;2022-08-19T03:04:31;24.60;58.40
22469;DHT22;11401;50.792;4.352;2022-08-19T03:06:58;24.60;58.40
22469;DHT22;11401;50.792;4.352;2022-08-19T03:09:37;24.50;58.50
22469;DHT22;11401;50.792;4.352;2022-08-19T03:12:05;24.50;58.40
22469;DHT22;11401;50.792;4.352;2022-08-19T03:14:33;24.50;58.40
22469;DHT22;11401;50.792;4.352;2022-08-19T03:17:00;24.50;58.40
22469;DHT22;11401;50.792;4.352;2022-08-19T03:19:27;24.50;58.40
22469;DHT22;11401;50.792;4.352;2022-08-19T03:21:55;24.40;58.40
22469;DHT22;11401;50.792;4.352;2022-08-19T03:24:22;24.40;58.40
22469;DHT22;11401;50.792;4.352;2022-08-19T03:26:51;24.40;58.40
22469;DHT22;11401;50.792;4.352;2022-08-19T03:29:19;24.40;58.40
22469;DHT22;11401;50.792;4.352;2022-08-19T03:31:56;24.40;58.40
22469;DHT22;11401;50.792;4.352;2022-08-19T03:34:28;24.40;58.40
22469;DHT22;11401;50.792;4.352;2022-08-19T03:36:57;24.40;58.40
22469;DHT22;11401;50.792;4.352;2022-08-19T03:39:25;24.40;58.20
22469;DHT22;11401;50.792;4.352;2022-08-19T03:41:53;24.40;58.40
22469;DHT22;11401;50.792;4.352;2022-08-19T03:44:42;24.30;58.40
22469;DHT22;11401;50.792;4.352;2022-08-19T03:47:11;24.30;58.30
22469;DHT22;11401;50.792;4.352;2022-08-19T03:49:43;24.30;58.40
22469;DHT22;11401;50.792;4.352;2022-08-19T03:52:10;24.20;58.60
22469;DHT22;11401;50.792;4.352;2022-08-19T03:54:38;24.20;58.50
22469;DHT22;11401;50.792;4.352;2022-08-19T03:57:05;24.30;58.50
22469;DHT22;11401;50.792;4.352;2022-08-19T03:59:34;24.20;58.50
22469;DHT22;11401;50.792;4.352;2022-08-19T04:02:05;24.30;58.50
22469;DHT22;11401;50.792;4.352;2022-08-19T04:04:37;24.20;58.50
22469;DHT22;11401;50.792;4.352;2022-08-19T04:07:04;24.20;58.60
22469;DHT22;11401;50.792;4.352;2022-08-19T04:09:33;24.20;58.50
22469;DHT22;11401;50.792;4.352;2022-08-19T04:12:00;24.20;58.60
22469;DHT22;11401;50.792;4.352;2022-08-19T04:14:29;24.20;58.50
22469;DHT22;11401;50.792;4.352;2022-08-19T04:16:59;24.20;58.70
22469;DHT22;11401;50.792;4.352;2022-08-19T04:19:29;24.20;58.70
22469;DHT22;11401;50.792;4.352;2022-08-19T04:21:56;24.20;58.60
22469;DHT22;11401;50.792;4.352;2022-08-19T04:24:24;24.10;58.90
22469;DHT22;11401;50.792;4.352;2022-08-19T04:26:51;24.10;58.70
22469;DHT22;11401;50.792;4.352;2022-08-19T04:29:21;24.20;58.80
22469;DHT22;11401;50.792;4.352;2022-08-19T04:31:53;24.20;58.80
22469;DHT22;11401;50.792;4.352;2022-08-19T04:34:22;24.10;58.90
22469;DHT22;11401;50.792;4.352;2022-08-19T04:36:53;24.10;59.00
22469;DHT22;11401;50.792;4.352;2022-08-19T04:39:30;24.10;58.80
22469;DHT22;11401;50.792;4.352;2022-08-19T04:42:18;24.10;58.90
22469;DHT22;11401;50.792;4.352;2022-08-19T04:45:07;24.10;58.90
22469;DHT22;11401;50.792;4.352;2022-08-19T04:47:39;24.00;58.80
22469;DHT22;11401;50.792;4.352;2022-08-19T04:50:25;24.00;58.90
22469;DHT22;11401;50.792;4.352;2022-08-19T04:52:52;24.00;59.00
22469;DHT22;11401;50.792;4.352;2022-08-19T04:55:20;24.00;58.90
22469;DHT22;11401;50.792;4.352;2022-08-19T04:57:47;24.00;58.80
22469;DHT22;11401;50.792;4.352;2022-08-19T05:00:14;24.00;58.90
22469;DHT22;11401;50.792;4.352;2022-08-19T05:02:41;24.00;58.90
22469;DHT22;11401;50.792;4.352;2022-08-19T05:05:09;24.00;58.80
22469;DHT22;11401;50.792;4.352;2022-08-19T05:07:36;24.00;59.00
22469;DHT22;11401;50.792;4.352;2022-08-19T05:10:05;24.00;58.80
22469;DHT22;11401;50.792;4.352;2022-08-19T05:12:32;24.00;59.00
22469;DHT22;11401;50.792;4.352;2022-08-19T05:14:59;24.00;58.90
22469;DHT22;11401;50.792;4.352;2022-08-19T05:17:27;24.00;59.00
22469;DHT22;11401;50.792;4.352;2022-08-19T05:20:03;24.00;59.00
22469;DHT22;11401;50.792;4.352;2022-08-19T05:22:49;24.00;58.90
22469;DHT22;11401;50.792;4.352;2022-08-19T05:25:19;24.00;58.90
22469;DHT22;11401;50.792;4.352;2022-08-19T05:27:47;24.00;58.80
22469;DHT22;11401;50.792;4.352;2022-08-19T05:30:15;24.00;59.10
22469;DHT22;11401;50.792;4.352;2022-08-19T05:32:43;24.00;59.00
22469;DHT22;11401;50.792;4.352;2022-08-19T05:35:10;24.00;59.00
22469;DHT22;11401;50.792;4.352;2022-08-19T05:37:38;24.00;59.00
22469;DHT22;11401;50.792;4.352;2022-08-19T05:40:08;24.00;58.90
22469;DHT22;11401;50.792;4.352;2022-08-19T05:42:36;24.00;59.00
22469;DHT22;11401;50.792;4.352;2022-08-19T05:45:05;24.00;59.00
22469;DHT22;11401;50.792;4.352;2022-08-19T05:47:32;24.00;59.10
22469;DHT22;11401;50.792;4.352;2022-08-19T05:49:59;24.20;59.60
22469;DHT22;11401;50.792;4.352;2022-08-19T05:52:31;24.40;59.10
22469;DHT22;11401;50.792;4.352;2022-08-19T05:54:59;24.50;59.20
22469;DHT22;11401;50.792;4.352;2022-08-19T05:57:26;24.60;59.40
22469;DHT22;11401;50.792;4.352;2022-08-19T05:59:56;24.60;58.70
22469;DHT22;11401;50.792;4.352;2022-08-19T06:02:28;24.60;58.30
22469;DHT22;11401;50.792;4.352;2022-08-19T06:04:57;24.70;58.50
22469;DHT22;11401;50.792;4.352;2022-08-19T06:07:25;24.70;58.70
22469;DHT22;11401;50.792;4.352;2022-08-19T06:09:52;24.70;58.20
22469;DHT22;11401;50.792;4.352;2022-08-19T06:12:31;24.80;58.70
22469;DHT22;11401;50.792;4.352;2022-08-19T06:15:07;24.80;58.30
22469;DHT22;11401;50.792;4.352;2022-08-19T06:17:35;24.90;59.00
22469;DHT22;11401;50.792;4.352;2022-08-19T06:20:08;24.90;58.40
22469;DHT22;11401;50.792;4.352;2022-08-19T06:22:45;24.90;58.70
22469;DHT22;11401;50.792;4.352;2022-08-19T06:25:13;24.90;58.30
22469;DHT22;11401;50.792;4.352;2022-08-19T06:27:41;24.90;58.20
22469;DHT22;11401;50.792;4.352;2022-08-19T06:30:28;24.90;58.50
22469;DHT22;11401;50.792;4.352;2022-08-19T06:32:56;24.90;58.30
22469;DHT22;11401;50.792;4.352;2022-08-19T06:35:24;25.00;58.80
22469;DHT22;11401;50.792;4.352;2022-08-19T06:37:51;25.00;58.40
22469;DHT22;11401;50.792;4.352;2022-08-19T06:40:19;24.90;58.10
22469;DHT22;11401;50.792;4.352;2022-08-19T06:42:46;25.00;58.30
22469;DHT22;11401;50.792;4.352;2022-08-19T06:45:21;25.00;58.20
22469;DHT22;11401;50.792;4.352;2022-08-19T06:47:59;25.00;58.40
22469;DHT22;11401;50.792;4.352;2022-08-19T06:50:27;25.10;58.70
22469;DHT22;11401;50.792;4.352;2022-08-19T06:52:54;25.10;58.80
22469;DHT22;11401;50.792;4.352;2022-08-19T06:55:21;25.20;59.10
22469;DHT22;11401;50.792;4.352;2022-08-19T06:57:48;25.20;59.00
22469;DHT22;11401;50.792;4.352;2022-08-19T07:00:20;25.30;58.80
22469;DHT22;11401;50.792;4.352;2022-08-19T07:02:47;25.30;58.70
22469;DHT22;11401;50.792;4.352;2022-08-19T07:05:24;25.30;58.50
22469;DHT22;11401;50.792;4.352;2022-08-19T07:07:51;25.30;58.50
22469;DHT22;11401;50.792;4.352;2022-08-19T07:10:18;25.40;58.50
22469;DHT22;11401;50.792;4.352;2022-08-19T07:12:45;25.40;58.60
22469;DHT22;11401;50.792;4.352;2022-08-19T07:15:14;25.40;58.30
22469;DHT22;11401;50.792;4.352;2022-08-19T07:17:44;25.40;58.30
22469;DHT22;11401;50.792;4.352;2022-08-19T07:20:18;25.30;58.40
22469;DHT22;11401;50.792;4.352;2022-08-19T07:22:45;25.30;58.30
22469;DHT22;11401;50.792;4.352;2022-08-19T07:25:12;25.40;58.50
22469;DHT22;11401;50.792;4.352;2022-08-19T07:27:40;25.40;59.20
22469;DHT22;11401;50.792;4.352;2022-08-19T07:30:12;25.40;58.40
22469;DHT22;11401;50.792;4.352;2022-08-19T07:32:40;25.40;58.50
22469;DHT22;11401;50.792;4.352;2022-08-19T07:35:07;25.40;58.30
22469;DHT22;11401;50.792;4.352;2022-08-19T07:37:36;25.40;58.40
22469;DHT22;11401;50.792;4.352;2022-08-19T07:40:06;25.40;58.50
22469;DHT22;11401;50.792;4.352;2022-08-19T07:42:33;25.40;58.40
22469;DHT22;11401;50.792;4.352;2022-08-19T07:45:00;25.40;58.70
22469;DHT22;11401;50.792;4.352;2022-08-19T07:47:28;25.40;58.40
22469;DHT22;11401;50.792;4.352;2022-08-19T07:50:16;25.40;58.60
22469;DHT22;11401;50.792;4.352;2022-08-19T07:52:43;25.40;58.70
22469;DHT22;11401;50.792;4.352;2022-08-19T07:55:20;25.40;58.60
22469;DHT22;11401;50.792;4.352;2022-08-19T07:58:08;25.40;58.90
22469;DHT22;11401;50.792;4.352;2022-08-19T08:00:35;25.40;59.00
22469;DHT22;11401;50.792;4.352;2022-08-19T08:03:02;25.40;58.80
22469;DHT22;11401;50.792;4.352;2022-08-19T08:05:29;25.40;58.80
22469;DHT22;11401;50.792;4.352;2022-08-19T08:08:16;25.40;59.00
22469;DHT22;11401;50.792;4.352;2022-08-19T08:11:03;25.40;59.20
22469;DHT22;11401;50.792;4.352;2022-08-19T08:13:34;25.40;59.20
22469;DHT22;11401;50.792;4.352;2022-08-19T08:16:04;25.40;60.00
22469;DHT22;11401;50.792;4.352;2022-08-19T08:18:39;25.40;59.50
22469;DHT22;11401;50.792;4.352;2022-08-19T08:21:09;25.40;59.20
22469;DHT22;11401;50.792;4.352;2022-08-19T08:23:36;25.40;59.30
22469;DHT22;11401;50.792;4.352;2022-08-19T08:26:05;25.50;59.40
22469;DHT22;11401;50.792;4.352;2022-08-19T08:28:32;25.40;59.50
22469;DHT22;11401;50.792;4.352;2022-08-19T08:30:59;25.50;59.60
22469;DHT22;11401;50.792;4.352;2022-08-19T08:33:27;25.50;59.70
22469;DHT22;11401;50.792;4.352;2022-08-19T08:36:07;25.50;59.60
22469;DHT22;11401;50.792;4.352;2022-08-19T08:38:36;25.50;59.50
22469;DHT22;11401;50.792;4.352;2022-08-19T08:43:59;25.50;59.50
22469;DHT22;11401;50.792;4.352;2022-08-19T08:46:48;25.50;59.70
22469;DHT22;11401;50.792;4.352;2022-08-19T08:52:13;25.50;59.60
22469;DHT22;11401;50.792;4.352;2022-08-19T08:54:45;25.50;59.60
22469;DHT22;11401;50.792;4.352;2022-08-19T08:57:39;25.50;59.70
22469;DHT22;11401;50.792;4.352;2022-08-19T09:00:14;25.60;59.80
22469;DHT22;11401;50.792;4.352;2022-08-19T09:02:44;25.60;59.80
22469;DHT22;11401;50.792;4.352;2022-08-19T09:05:17;25.50;59.80
22469;DHT22;11401;50.792;4.352;2022-08-19T09:07:59;25.60;59.90
22469;DHT22;11401;50.792;4.352;2022-08-19T09:10:40;25.60;59.70
22469;DHT22;11401;50.792;4.352;2022-08-19T09:13:46;25.60;59.70
22469;DHT22;11401;50.792;4.352;2022-08-19T09:16:19;25.60;59.90
22469;DHT22;11401;50.792;4.352;2022-08-19T09:19:05;25.60;60.10
22469;DHT22;11401;50.792;4.352;2022-08-19T09:21:32;25.60;60.10
22469;DHT22;11401;50.792;4.352;2022-08-19T09:24:02;25.60;60.20
22469;DHT22;11401;50.792;4.352;2022-08-19T09:26:31;25.60;60.10
22469;DHT22;11401;50.792;4.352;2022-08-19T09:29:18;25.60;60.20
22469;DHT22;11401;50.792;4.352;2022-08-19T09:31:48;25.60;60.10
22469;DHT22;11401;50.792;4.352;2022-08-19T09:34:16;25.60;60.10
22469;DHT22;11401;50.792;4.352;2022-08-19T09:36:50;25.60;60.10
22469;DHT22;11401;50.792;4.352;2022-08-19T09:39:22;25.60;59.90
22469;DHT22;11401;50.792;4.352;2022-08-19T09:41:49;25.60;60.90
22469;DHT22;11401;50.792;4.352;2022-08-19T09:44:17;25.60;60.20
22469;DHT22;11401;50.792;4.352;2022-08-19T09:46:47;25.60;60.00
22469;DHT22;11401;50.792;4.352;2022-08-19T09:49:16;25.60;60.00
22469;DHT22;11401;50.792;4.352;2022-08-19T09:51:44;25.60;60.00
22469;DHT22;11401;50.792;4.352;2022-08-19T09:54:17;25.60;60.10
22469;DHT22;11401;50.792;4.352;2022-08-19T09:56:54;25.60;60.10
22469;DHT22;11401;50.792;4.352;2022-08-19T09:59:22;25.60;60.20
22469;DHT22;11401;50.792;4.352;2022-08-19T10:01:49;25.60;61.10
22469;DHT22;11401;50.792;4.352;2022-08-19T10:04:17;25.70;60.40
22469;DHT22;11401;50.792;4.352;2022-08-19T10:06:49;25.60;60.10
22469;DHT22;11401;50.792;4.352;2022-08-19T10:09:21;25.60;60.10
22469;DHT22;11401;50.792;4.352;2022-08-19T10:11:59;25.60;60.20
22469;DHT22;11401;50.792;4.352;2022-08-19T10:14:29;25.60;60.40
22469;DHT22;11401;50.792;4.352;2022-08-19T10:16:56;25.70;60.40
22469;DHT22;11401;50.792;4.352;2022-08-19T10:19:25;25.70;60.10
22469;DHT22;11401;50.792;4.352;2022-08-19T10:21:53;25.70;60.30
22469;DHT22;11401;50.792;4.352;2022-08-19T10:24:26;25.70;59.90
22469;DHT22;11401;50.792;4.352;2022-08-19T10:26:55;25.70;59.60
22469;DHT22;11401;50.792;4.352;2022-08-19T10:29:26;25.60;59.70
22469;DHT22;11401;50.792;4.352;2022-08-19T10:32:04;25.60;60.10
22469;DHT22;11401;50.792;4.352;2022-08-19T10:34:39;25.70;60.40
22469;DHT22;11401;50.792;4.352;2022-08-19T10:37:15;25.70;60.50
22469;DHT22;11401;50.792;4.352;2022-08-19T10:39:50;25.70;60.40
22469;DHT22;11401;50.792;4.352;2022-08-19T10:42:18;25.70;60.50
22469;DHT22;11401;50.792;4.352;2022-08-19T10:44:45;25.70;60.30
22469;DHT22;11401;50.792;4.352;2022-08-19T10:47:13;25.70;60.40
22469;DHT22;11401;50.792;4.352;2022-08-19T10:49:54;25.70;60.60
22469;DHT22;11401;50.792;4.352;2022-08-19T10:52:42;25.70;60.50
22469;DHT22;11401;50.792;4.352;2022-08-19T10:55:17;25.70;60.40
22469;DHT22;11401;50.792;4.352;2022-08-19T10:58:03;25.70;60.40
22469;DHT22;11401;50.792;4.352;2022-08-19T11:00:30;25.70;60.60
22469;DHT22;11401;50.792;4.352;2022-08-19T11:02:58;25.70;60.50
22469;DHT22;11401;50.792;4.352;2022-08-19T11:05:25;25.70;60.30
22469;DHT22;11401;50.792;4.352;2022-08-19T11:07:52;25.70;60.40
22469;DHT22;11401;50.792;4.352;2022-08-19T11:10:20;25.70;60.40
22469;DHT22;11401;50.792;4.352;2022-08-19T11:12:48;25.70;60.40
22469;DHT22;11401;50.792;4.352;2022-08-19T11:15:15;25.70;60.50
22469;DHT22;11401;50.792;4.352;2022-08-19T11:17:42;25.70;60.50
22469;DHT22;11401;50.792;4.352;2022-08-19T11:20:14;25.70;60.70
22469;DHT22;11401;50.792;4.352;2022-08-19T11:22:41;25.80;60.60
22469;DHT22;11401;50.792;4.352;2022-08-19T11:25:10;25.70;60.40
22469;DHT22;11401;50.792;4.352;2022-08-19T11:27:41;25.70;60.50
22469;DHT22;11401;50.792;4.352;2022-08-19T11:30:11;25.70;60.50
22469;DHT22;11401;50.792;4.352;2022-08-19T11:32:42;25.70;60.50
22469;DHT22;11401;50.792;4.352;2022-08-19T11:35:15;25.80;60.30
22469;DHT22;11401;50.792;4.352;2022-08-19T11:37:43;25.80;60.50
22469;DHT22;11401;50.792;4.352;2022-08-19T11:40:10;25.80;60.50
22469;DHT22;11401;50.792;4.352;2022-08-19T11:42:37;25.80;61.20
22469;DHT22;11401;50.792;4.352;2022-08-19T11:45:25;25.80;60.50
22469;DHT22;11401;50.792;4.352;2022-08-19T11:47:53;25.80;60.50
22469;DHT22;11401;50.792;4.352;2022-08-19T11:50:21;25.80;60.40
22469;DHT22;11401;50.792;4.352;2022-08-19T11:52:52;25.80;60.30
22469;DHT22;11401;50.792;4.352;2022-08-19T11:55:20;25.80;60.30
22469;DHT22;11401;50.792;4.352;2022-08-19T11:57:48;25.80;60.20
22469;DHT22;11401;50.792;4.352;2022-08-19T12:00:15;25.80;59.80
22469;DHT22;11401;50.792;4.352;2022-08-19T12:02:42;25.80;59.80
22469;DHT22;11401;50.792;4.352;2022-08-19T12:05:09;25.80;59.80
22469;DHT22;11401;50.792;4.352;2022-08-19T12:07:39;25.80;59.80
22469;DHT22;11401;50.792;4.352;2022-08-19T12:10:07;25.70;59.80
22469;DHT22;11401;50.792;4.352;2022-08-19T12:12:34;25.80;59.90
22469;DHT22;11401;50.792;4.352;2022-08-19T12:15:01;25.80;59.80
22469;DHT22;11401;50.792;4.352;2022-08-19T12:17:28;25.90;59.80
22469;DHT22;11401;50.792;4.352;2022-08-19T12:19:57;25.90;59.80
22469;DHT22;11401;50.792;4.352;2022-08-19T12:22:24;25.90;59.60
22469;DHT22;11401;50.792;4.352;2022-08-19T12:24:51;25.90;59.50
22469;DHT22;11401;50.792;4.352;2022-08-19T12:27:20;25.90;59.60
22469;DHT22;11401;50.792;4.352;2022-08-19T12:30:09;25.90;59.50
22469;DHT22;11401;50.792;4.352;2022-08-19T12:32:37;26.00;59.60
22469;DHT22;11401;50.792;4.352;2022-08-19T12:35:06;26.00;59.60
22469;DHT22;11401;50.792;4.352;2022-08-19T12:37:33;26.00;59.60
22469;DHT22;11401;50.792;4.352;2022-08-19T12:40:00;26.00;59.60
22469;DHT22;11401;50.792;4.352;2022-08-19T12:42:29;26.00;59.70
22469;DHT22;11401;50.792;4.352;2022-08-19T12:44:57;26.00;59.70
22469;DHT22;11401;50.792;4.352;2022-08-19T12:47:24;26.00;59.70
22469;DHT22;11401;50.792;4.352;2022-08-19T12:49:53;26.00;59.60
22469;DHT22;11401;50.792;4.352;2022-08-19T12:52:23;26.00;59.60
22469;DHT22;11401;50.792;4.352;2022-08-19T12:54:52;26.00;59.60
22469;DHT22;11401;50.792;4.352;2022-08-19T12:57:23;26.00;59.60
22469;DHT22;11401;50.792;4.352;2022-08-19T13:00:10;26.00;59.60
22469;DHT22;11401;50.792;4.352;2022-08-19T13:02:39;26.00;59.50
22469;DHT22;11401;50.792;4.352;2022-08-19T13:05:09;26.00;59.40
22469;DHT22;11401;50.792;4.352;2022-08-19T13:07:39;26.00;59.40
22469;DHT22;11401;50.792;4.352;2022-08-19T13:10:08;26.00;59.30
22469;DHT22;11401;50.792;4.352;2022-08-19T13:12:35;26.10;59.30
22469;DHT22;11401;50.792;4.352;2022-08-19T13:15:03;26.00;59.20
22469;DHT22;11401;50.792;4.352;2022-08-19T13:17:37;26.00;59.20
22469;DHT22;11401;50.792;4.352;2022-08-19T13:20:06;26.00;59.20
22469;DHT22;11401;50.792;4.352;2022-08-19T13:22:34;26.00;59.80
22469;DHT22;11401;50.792;4.352;2022-08-19T13:25:06;26.00;59.30
22469;DHT22;11401;50.792;4.352;2022-08-19T13:27:33;26.00;59.30
22469;DHT22;11401;50.792;4.352;2022-08-19T13:30:02;26.00;59.20
22469;DHT22;11401;50.792;4.352;2022-08-19T13:32:48;26.00;59.10
22469;DHT22;11401;50.792;4.352;2022-08-19T13:35:33;26.00;59.20
22469;DHT22;11401;50.792;4.352;2022-08-19T13:38:00;26.00;59.70
22469;DHT22;11401;50.792;4.352;2022-08-19T13:40:37;26.00;59.70
22469;DHT22;11401;50.792;4.352;2022-08-19T13:43:07;26.00;59.70
22469;DHT22;11401;50.792;4.352;2022-08-19T13:45:51;26.00;59.70
22469;DHT22;11401;50.792;4.352;2022-08-19T13:48:20;26.00;59.80
22469;DHT22;11401;50.792;4.352;2022-08-19T13:50:47;26.00;60.10
22469;DHT22;11401;50.792;4.352;2022-08-19T13:53:15;26.00;60.00
22469;DHT22;11401;50.792;4.352;2022-08-19T13:55:43;26.00;60.80
22469;DHT22;11401;50.792;4.352;2022-08-19T13:58:11;26.10;60.30
22469;DHT22;11401;50.792;4.352;2022-08-19T14:00:41;26.00;60.30
22469;DHT22;11401;50.792;4.352;2022-08-19T14:03:08;26.00;60.40
22469;DHT22;11401;50.792;4.352;2022-08-19T14:05:36;26.00;60.20
22469;DHT22;11401;50.792;4.352;2022-08-19T14:08:03;26.00;60.10
22469;DHT22;11401;50.792;4.352;2022-08-19T14:10:31;26.00;60.60
22469;DHT22;11401;50.792;4.352;2022-08-19T14:13:00;26.00;60.30
22469;DHT22;11401;50.792;4.352;2022-08-19T14:15:28;26.00;60.30
22469;DHT22;11401;50.792;4.352;2022-08-19T14:17:56;26.00;60.30
22469;DHT22;11401;50.792;4.352;2022-08-19T14:20:23;26.00;60.30
22469;DHT22;11401;50.792;4.352;2022-08-19T14:22:52;25.90;60.50
22469;DHT22;11401;50.792;4.352;2022-08-19T14:25:23;26.00;60.50
22469;DHT22;11401;50.792;4.352;2022-08-19T14:27:50;26.00;60.50
22469;DHT22;11401;50.792;4.352;2022-08-19T14:30:23;26.00;61.30
22469;DHT22;11401;50.792;4.352;2022-08-19T14:32:52;26.00;60.60
22469;DHT22;11401;50.792;4.352;2022-08-19T14:35:20;26.00;60.70
22469;DHT22;11401;50.792;4.352;2022-08-19T14:37:49;26.00;60.60
22469;DHT22;11401;50.792;4.352;2022-08-19T14:40:18;26.00;60.70
22469;DHT22;11401;50.792;4.352;2022-08-19T14:42:59;26.00;60.80
22469;DHT22;11401;50.792;4.352;2022-08-19T14:45:32;26.00;60.90
22469;DHT22;11401;50.792;4.352;2022-08-19T14:48:06;26.00;60.80
22469;DHT22;11401;50.792;4.352;2022-08-19T14:50:38;26.00;60.80
22469;DHT22;11401;50.792;4.352;2022-08-19T14:53:07;26.00;60.80
22469;DHT22;11401;50.792;4.352;2022-08-19T14:55:44;26.00;60.60
22469;DHT22;11401;50.792;4.352;2022-08-19T14:58:13;26.00;60.60
22469;DHT22;11401;50.792;4.352;2022-08-19T15:00:57;26.00;60.70
22469;DHT22;11401;50.792;4.352;2022-08-19T15:03:24;26.00;61.00
22469;DHT22;11401;50.792;4.352;2022-08-19T15:05:53;26.00;61.50
22469;DHT22;11401;50.792;4.352;2022-08-19T15:08:20;26.00;61.80
22469;DHT22;11401;50.792;4.352;2022-08-19T15:10:51;26.00;61.70
22469;DHT22;11401;50.792;4.352;2022-08-19T15:13:19;26.00;61.70
22469;DHT22;11401;50.792;4.352;2022-08-19T15:15:47;26.00;62.20
22469;DHT22;11401;50.792;4.352;2022-08-19T15:18:16;26.10;62.40
22469;DHT22;11401;50.792;4.352;2022-08-19T15:20:43;26.10;63.20
22469;DHT22;11401;50.792;4.352;2022-08-19T15:23:14;26.10;62.40
22469;DHT22;11401;50.792;4.352;2022-08-19T15:25:41;26.10;62.50
22469;DHT22;11401;50.792;4.352;2022-08-19T15:28:09;26.10;62.40
22469;DHT22;11401;50.792;4.352;2022-08-19T15:30:40;26.10;62.60
22469;DHT22;11401;50.792;4.352;2022-08-19T15:33:07;26.20;62.30
22469;DHT22;11401;50.792;4.352;2022-08-19T15:35:34;26.20;62.70
22469;DHT22;11401;50.792;4.352;2022-08-19T15:38:01;26.20;63.20
22469;DHT22;11401;50.792;4.352;2022-08-19T15:40:28;26.10;63.30
22469;DHT22;11401;50.792;4.352;2022-08-19T15:42:55;26.20;62.90
22469;DHT22;11401;50.792;4.352;2022-08-19T15:45:22;26.20;62.80
22469;DHT22;11401;50.792;4.352;2022-08-19T15:47:54;26.20;62.50
22469;DHT22;11401;50.792;4.352;2022-08-19T15:50:21;26.30;62.50
22469;DHT22;11401;50.792;4.352;2022-08-19T15:52:53;26.30;62.60
22469;DHT22;11401;50.792;4.352;2022-08-19T15:55:23;26.30;62.60
22469;DHT22;11401;50.792;4.352;2022-08-19T15:58:08;26.30;62.50
22469;DHT22;11401;50.792;4.352;2022-08-19T16:01:06;26.30;62.70